Time;durP1;ratioP1;P1;durP2;ratioP2;P2;SDS_P1;SDS_P2;PMS_P1;PMS_P2;Temp;Humidity;BMP_temperature;BMP_pressure;BME280_temperature;BME280_humidity;BME280_pressure;Samples;Min_cycle;Max_cycle;Signal;HPM_P1;HPM_P2
2020/12/13 00:02:14;;;;;;;11.13;2.90;;;10.00;99.90;;;;;;4918330;29;20032;-66
2020/12/13 00:08:01;;;;;;;10.35;2.40;;;10.00;99.90;;;;;;4918412;29;20090;-66
2020/12/13 00:10:27;;;;;;;12.15;2.58;;;10.00;99.90;;;;;;4917656;29;20077;-66
2020/12/13 00:12:53;;;;;;;13.52;2.70;;;10.00;99.90;;;;;;4918047;29;20031;-65
2020/12/13 00:15:19;;;;;;;13.73;2.40;;;9.90;99.90;;;;;;4918417;29;20024;-65
2020/12/13 00:17:47;;;;;;;12.15;2.60;;;9.90;99.90;;;;;;4918312;29;20059;-66
2020/12/13 00:20:12;;;;;;;10.27;3.15;;;9.90;99.90;;;;;;4917968;29;20016;-66
2020/12/13 00:22:38;;;;;;;12.20;2.83;;;10.00;99.90;;;;;;4918233;29;20055;-66
2020/12/13 00:25:04;;;;;;;14.25;3.15;;;10.00;99.90;;;;;;4917890;29;20060;-65
2020/12/13 00:27:29;;;;;;;12.30;2.97;;;10.00;99.90;;;;;;4917735;29;20051;-66
2020/12/13 00:29:55;;;;;;;13.52;2.42;;;9.90;99.90;;;;;;4918118;29;20021;-67
2020/12/13 00:32:25;;;;;;;7.65;2.33;;;9.90;99.90;;;;;;4918004;29;20043;-66
2020/12/13 00:38:13;;;;;;;10.45;2.80;;;9.90;99.90;;;;;;4917980;29;20345;-66
2020/12/13 00:40:39;;;;;;;11.25;2.88;;;9.80;99.90;;;;;;4917604;29;20029;-66
2020/12/13 00:43:04;;;;;;;8.68;2.42;;;9.80;99.90;;;;;;4917718;29;20028;-65
2020/12/13 00:45:30;;;;;;;14.38;2.83;;;9.80;99.90;;;;;;4917499;29;20129;-66
2020/12/13 00:47:56;;;;;;;14.55;2.65;;;9.80;99.90;;;;;;4917748;29;20047;-65
2020/12/13 00:50:22;;;;;;;11.52;2.95;;;9.80;99.90;;;;;;4917401;29;20075;-66
2020/12/13 00:52:48;;;;;;;9.27;2.75;;;9.80;99.90;;;;;;4917756;29;20074;-66
2020/12/13 00:55:13;;;;;;;10.38;2.88;;;9.90;99.90;;;;;;4917374;29;20107;-66
2020/12/13 00:57:39;;;;;;;9.80;2.60;;;9.90;99.90;;;;;;4917419;29;20024;-66
2020/12/13 01:00:05;;;;;;;12.63;2.85;;;9.90;99.90;;;;;;4917270;29;20032;-65
2020/12/13 01:02:31;;;;;;;7.70;2.63;;;9.80;99.90;;;;;;4917468;29;20040;-66
2020/12/13 01:08:18;;;;;;;9.98;2.65;;;9.90;99.90;;;;;;4917600;29;20206;-63
2020/12/13 01:10:45;;;;;;;8.18;2.65;;;9.90;99.90;;;;;;4917157;29;20093;-65
2020/12/13 01:13:11;;;;;;;11.93;3.10;;;9.90;99.90;;;;;;4917173;29;20032;-65
2020/12/13 01:15:36;;;;;;;9.35;3.22;;;9.90;99.90;;;;;;4916985;29;20470;-67
2020/12/13 01:18:02;;;;;;;11.18;4.25;;;9.90;99.90;;;;;;4916899;29;20036;-67
2020/12/13 01:20:28;;;;;;;16.10;3.97;;;9.80;99.90;;;;;;4916883;29;20036;-68
2020/12/13 01:22:53;;;;;;;13.23;3.97;;;9.80;99.90;;;;;;4916942;29;20494;-66
2020/12/13 01:25:19;;;;;;;10.27;3.15;;;9.90;99.90;;;;;;4916898;29;20401;-65
2020/12/13 01:27:45;;;;;;;12.38;3.50;;;9.90;99.90;;;;;;4916981;29;20064;-66
2020/12/13 01:30:10;;;;;;;10.68;3.50;;;9.80;99.90;;;;;;4916838;29;20032;-67
2020/12/13 01:32:40;;;;;;;8.57;2.90;;;9.80;99.90;;;;;;4916971;29;20036;-64
2020/12/13 01:38:27;;;;;;;8.27;2.70;;;9.80;99.90;;;;;;4916692;29;20055;-64
2020/12/13 01:40:58;;;;;;;11.95;3.65;;;9.80;99.90;;;;;;4916512;29;20056;-64
2020/12/13 01:43:24;;;;;;;14.05;3.97;;;9.70;99.90;;;;;;4916805;29;20024;-63
2020/12/13 01:45:50;;;;;;;12.93;3.53;;;9.60;99.90;;;;;;4916673;29;20039;-66
2020/12/13 01:48:16;;;;;;;10.00;3.67;;;9.60;99.90;;;;;;4916668;29;20040;-64
2020/12/13 01:50:55;;;;;;;14.85;3.90;;;9.50;99.90;;;;;;4916494;29;20047;-66
2020/12/13 01:53:25;;;;;;;14.48;3.92;;;9.50;99.90;;;;;;4916691;29;20032;-66
2020/12/13 01:55:56;;;;;;;15.35;3.88;;;9.40;99.90;;;;;;4900220;29;20068;-64
2020/12/13 01:58:38;;;;;;;14.60;3.92;;;9.40;99.90;;;;;;4916474;29;20035;-64
2020/12/13 02:01:06;;;;;;;11.23;4.25;;;9.30;99.90;;;;;;4916296;29;20103;-64
2020/12/13 02:03:53;;;;;;;15.45;5.32;;;9.30;99.90;;;;;;4916442;29;20108;-66
2020/12/13 02:06:24;;;;;;;17.73;6.22;;;9.30;99.90;;;;;;4916404;29;20032;-64
2020/12/13 02:08:51;;;;;;;21.48;5.70;;;9.30;99.90;;;;;;4916216;29;20114;-66
2020/12/13 02:11:21;;;;;;;18.73;6.35;;;9.40;99.90;;;;;;4916506;29;20099;-65
2020/12/13 02:13:48;;;;;;;13.98;5.55;;;9.40;99.90;;;;;;4916221;29;20088;-66
2020/12/13 02:16:14;;;;;;;14.23;5.53;;;9.40;99.90;;;;;;4916118;29;20055;-65
2020/12/13 02:18:41;;;;;;;16.63;5.30;;;9.40;99.90;;;;;;4916333;29;20177;-66
2020/12/13 02:21:11;;;;;;;11.13;4.75;;;9.40;99.90;;;;;;4916162;29;20083;-66
2020/12/13 02:23:38;;;;;;;18.10;5.00;;;9.40;99.90;;;;;;4916399;29;20055;-66
2020/12/13 02:26:06;;;;;;;14.05;4.63;;;9.40;99.90;;;;;;4916109;29;20534;-65
2020/12/13 02:28:32;;;;;;;12.95;4.65;;;9.40;99.90;;;;;;4916268;29;20059;-66
2020/12/13 02:30:58;;;;;;;15.27;4.15;;;9.40;99.90;;;;;;4916138;29;20437;-66
2020/12/13 02:33:23;;;;;;;12.57;4.10;;;9.40;99.90;;;;;;4918954;29;20034;-65
2020/12/13 02:35:49;;;;;;;14.93;4.45;;;9.40;99.90;;;;;;4920183;29;20149;-65
2020/12/13 02:38:15;;;;;;;14.32;4.03;;;9.40;99.90;;;;;;4919813;29;20028;-65
2020/12/13 02:40:40;;;;;;;13.88;3.47;;;9.40;99.90;;;;;;4919632;29;20028;-65
2020/12/13 02:43:06;;;;;;;12.48;3.63;;;9.40;99.90;;;;;;4919688;29;20131;-66
2020/12/13 02:45:32;;;;;;;11.82;4.13;;;9.40;99.90;;;;;;4919589;29;20059;-66
2020/12/13 02:47:57;;;;;;;13.23;4.13;;;9.40;99.90;;;;;;4919916;29;20040;-66
2020/12/13 02:54:00;;;;;;;14.40;3.90;;;9.40;99.90;;;;;;4918413;29;20059;-65
2020/12/13 02:56:32;;;;;;;13.05;3.95;;;9.50;99.90;;;;;;4919515;29;20481;-65
2020/12/13 02:58:58;;;;;;;15.30;3.58;;;9.40;99.90;;;;;;4919413;29;20532;-65
2020/12/13 03:01:27;;;;;;;11.77;3.53;;;9.40;99.90;;;;;;4919708;29;20164;-65
2020/12/13 03:03:52;;;;;;;14.10;3.75;;;9.50;99.90;;;;;;4919280;29;20564;-67
2020/12/13 03:06:18;;;;;;;10.50;3.85;;;9.50;99.90;;;;;;4919272;29;20084;-66
2020/12/13 03:08:44;;;;;;;10.60;3.53;;;9.50;99.90;;;;;;4919468;29;20079;-67
2020/12/13 03:11:09;;;;;;;12.32;3.40;;;9.50;99.90;;;;;;4919177;29;20396;-67
2020/12/13 03:13:35;;;;;;;14.63;3.75;;;9.50;99.90;;;;;;4919177;29;20020;-67
2020/12/13 03:16:01;;;;;;;14.77;3.80;;;9.50;99.90;;;;;;4919258;29;20023;-65
2020/12/13 03:18:26;;;;;;;12.43;3.70;;;9.50;99.90;;;;;;4919208;29;20038;-66
2020/12/13 03:20:52;;;;;;;12.77;3.15;;;9.60;99.90;;;;;;4919073;29;20024;-66
2020/12/13 03:23:17;;;;;;;12.60;3.67;;;9.60;99.90;;;;;;4918953;29;20075;-66
2020/12/13 03:25:43;;;;;;;12.93;3.90;;;9.60;99.90;;;;;;4919061;29;20032;-67
2020/12/13 03:28:09;;;;;;;15.10;4.20;;;9.60;99.90;;;;;;4918936;29;20500;-67
2020/12/13 03:30:34;;;;;;;12.52;4.05;;;9.60;99.90;;;;;;4919214;29;20080;-67
2020/12/13 03:33:00;;;;;;;12.27;3.92;;;9.50;99.90;;;;;;4919481;29;20452;-67
2020/12/13 03:38:47;;;;;;;17.15;4.53;;;9.50;99.90;;;;;;4918954;29;20141;-67
2020/12/13 03:41:13;;;;;;;12.77;4.13;;;9.50;99.90;;;;;;4918650;29;20111;-67
2020/12/13 03:43:38;;;;;;;15.85;4.55;;;9.40;99.90;;;;;;4918494;29;20024;-68
2020/12/13 03:46:04;;;;;;;13.32;3.95;;;9.40;99.90;;;;;;4918159;29;20047;-66
2020/12/13 03:48:30;;;;;;;16.85;3.83;;;9.40;99.90;;;;;;4918752;29;20035;-66
2020/12/13 03:50:55;;;;;;;10.38;3.90;;;9.40;99.90;;;;;;4918430;29;20046;-66
2020/12/13 03:53:21;;;;;;;15.52;3.95;;;9.40;99.90;;;;;;4918374;29;20056;-67
2020/12/13 03:55:47;;;;;;;16.13;4.57;;;9.30;99.90;;;;;;4918504;29;20104;-67
2020/12/13 03:58:13;;;;;;;16.60;4.28;;;9.30;99.90;;;;;;4918694;29;20028;-67
2020/12/13 04:00:39;;;;;;;15.93;4.03;;;9.20;99.90;;;;;;4918356;29;20028;-67
2020/12/13 04:03:04;;;;;;;15.70;4.55;;;9.10;99.90;;;;;;4918345;29;20038;-67
2020/12/13 04:08:52;;;;;;;15.57;3.88;;;8.90;99.90;;;;;;4918719;29;20376;-67
2020/12/13 04:11:18;;;;;;;13.57;4.10;;;8.90;99.90;;;;;;4918414;29;20036;-67
2020/12/13 04:13:43;;;;;;;14.20;3.53;;;8.80;99.90;;;;;;4918472;29;20103;-66
2020/12/13 04:16:12;;;;;;;12.55;3.70;;;8.80;99.90;;;;;;4918344;29;20516;-66
2020/12/13 04:18:38;;;;;;;12.60;3.95;;;8.70;99.90;;;;;;4918249;29;20068;-67
2020/12/13 04:21:04;;;;;;;15.25;3.72;;;8.70;99.90;;;;;;4918359;29;20067;-68
2020/12/13 04:23:31;;;;;;;13.63;3.85;;;8.70;99.90;;;;;;4918259;29;20052;-68
2020/12/13 04:25:56;;;;;;;14.32;4.00;;;8.60;99.90;;;;;;4918413;29;20036;-67
2020/12/13 04:28:22;;;;;;;14.70;4.03;;;8.60;99.90;;;;;;4917883;29;20042;-66
2020/12/13 04:30:48;;;;;;;9.85;3.38;;;8.50;99.90;;;;;;4917951;29;20036;-68
2020/12/13 04:33:13;;;;;;;15.27;3.67;;;8.50;99.90;;;;;;4917861;29;20040;-67
2020/12/13 04:39:01;;;;;;;10.88;3.80;;;8.50;99.90;;;;;;4917979;29;20084;-68
2020/12/13 04:41:27;;;;;;;13.10;3.33;;;8.40;99.90;;;;;;4917926;29;20032;-68
2020/12/13 04:43:52;;;;;;;19.00;4.28;;;8.40;99.90;;;;;;4917969;29;20060;-64
2020/12/13 04:46:18;;;;;;;16.77;3.67;;;8.30;99.90;;;;;;4917771;29;20073;-68
2020/12/13 04:48:45;;;;;;;12.38;3.88;;;8.30;99.90;;;;;;4917708;29;20380;-67
2020/12/13 04:51:10;;;;;;;9.50;3.03;;;8.20;99.90;;;;;;4917490;29;20035;-67
2020/12/13 04:53:39;;;;;;;11.80;3.42;;;8.20;99.90;;;;;;4917332;29;20129;-65
2020/12/13 04:56:10;;;;;;;12.25;3.45;;;8.20;99.90;;;;;;4917027;29;20062;-67
2020/12/13 04:58:36;;;;;;;12.35;3.28;;;8.10;99.90;;;;;;4917614;29;20024;-66
2020/12/13 05:01:03;;;;;;;12.55;3.42;;;8.10;99.90;;;;;;4917606;29;20035;-66
2020/12/13 05:03:30;;;;;;;13.75;4.00;;;8.00;99.90;;;;;;4917184;29;20489;-65
2020/12/13 05:09:18;;;;;;;12.02;3.38;;;8.00;99.90;;;;;;4917730;29;20036;-67
2020/12/13 05:11:47;;;;;;;10.07;3.30;;;7.90;99.90;;;;;;4917130;29;20588;-66
2020/12/13 05:14:12;;;;;;;13.68;3.92;;;7.90;99.90;;;;;;4917179;29;20036;-68
2020/12/13 05:16:38;;;;;;;10.05;3.53;;;7.90;99.90;;;;;;4917304;29;20036;-66
2020/12/13 05:19:09;;;;;;;11.73;3.58;;;7.90;99.90;;;;;;4916931;29;20029;-66
2020/12/13 05:21:36;;;;;;;14.18;4.10;;;7.90;99.90;;;;;;4917026;29;20495;-66
2020/12/13 05:24:07;;;;;;;13.57;3.47;;;7.80;99.90;;;;;;4916962;29;20028;-65
2020/12/13 05:26:34;;;;;;;11.05;3.78;;;7.80;99.90;;;;;;4916861;29;20039;-66
2020/12/13 05:29:02;;;;;;;13.52;4.07;;;7.80;99.90;;;;;;4917108;29;20029;-65
2020/12/13 05:31:30;;;;;;;11.82;3.80;;;7.70;99.90;;;;;;4917027;29;20036;-67
2020/12/13 05:40:07;;;;;;;11.68;3.92;;;7.60;99.90;;;;;;4917195;29;20483;-67
2020/12/13 05:42:39;;;;;;;12.55;3.65;;;7.60;99.90;;;;;;4916828;29;20036;-66
2020/12/13 05:52:53;;;;;;;12.13;3.80;;;7.50;99.90;;;;;;4916473;29;20042;-67
2020/12/13 05:55:19;;;;;;;14.20;4.38;;;7.50;99.90;;;;;;4916834;29;20043;-67
2020/12/13 05:57:54;;;;;;;12.27;4.05;;;7.50;99.90;;;;;;4916746;29;20111;-66
2020/12/13 06:00:21;;;;;;;11.57;3.70;;;7.50;99.90;;;;;;4916535;29;20079;-65
2020/12/13 06:02:49;;;;;;;12.38;3.92;;;7.50;99.90;;;;;;4916140;29;20099;-66
2020/12/13 06:05:16;;;;;;;13.52;4.32;;;7.50;99.90;;;;;;4916380;29;20462;-65
2020/12/13 06:07:50;;;;;;;10.50;4.00;;;7.40;99.90;;;;;;4915487;29;20036;-66
2020/12/13 06:10:24;;;;;;;15.50;4.20;;;7.40;99.90;;;;;;4916677;29;20039;-67
2020/12/13 06:12:59;;;;;;;13.75;3.95;;;7.40;99.90;;;;;;4916536;29;20059;-66
2020/12/13 06:15:27;;;;;;;11.15;3.92;;;7.40;99.90;;;;;;4916428;29;20115;-66
2020/12/13 06:17:53;;;;;;;17.48;3.97;;;7.40;99.90;;;;;;4916363;29;20021;-67
2020/12/13 06:20:19;;;;;;;11.43;3.72;;;7.40;99.90;;;;;;4916450;29;20118;-68
2020/12/13 06:22:45;;;;;;;14.02;3.95;;;7.40;99.90;;;;;;4916195;29;20024;-67
2020/12/13 06:25:11;;;;;;;11.82;3.70;;;7.40;99.90;;;;;;4916063;29;20040;-69
2020/12/13 06:27:37;;;;;;;14.32;3.63;;;7.30;99.90;;;;;;4915799;29;20126;-68
2020/12/13 06:30:08;;;;;;;15.93;4.15;;;7.30;99.90;;;;;;4916239;29;20036;-69
2020/12/13 06:32:41;;;;;;;13.77;3.88;;;7.30;99.90;;;;;;4916238;29;20040;-67
2020/12/13 06:35:08;;;;;;;9.48;3.90;;;7.30;99.90;;;;;;4916305;29;20028;-67
2020/12/13 06:37:36;;;;;;;11.48;4.18;;;7.30;99.90;;;;;;4916295;29;20069;-68
2020/12/13 06:40:07;;;;;;;13.43;4.15;;;7.30;99.90;;;;;;4915919;29;20092;-76
2020/12/13 06:42:41;;;;;;;12.00;3.80;;;7.20;99.90;;;;;;4916177;29;20358;-69
2020/12/13 06:45:10;;;;;;;;;;;7.20;99.90;;;;;;4916694;29;20421;-68
2020/12/13 06:47:41;;;;;;;16.95;5.05;;;7.20;99.90;;;;;;4916110;29;19915;-68
2020/12/13 06:50:18;;;;;;;12.25;4.88;;;7.20;99.90;;;;;;4915665;29;20114;-67
2020/12/13 06:52:44;;;;;;;13.27;4.93;;;7.10;99.90;;;;;;4915701;29;20107;-66
2020/12/13 06:55:11;;;;;;;14.10;5.10;;;7.10;99.90;;;;;;4916084;29;20064;-66
2020/12/13 06:57:36;;;;;;;13.43;5.10;;;7.00;99.90;;;;;;4915987;29;20036;-67
2020/12/13 07:00:05;;;;;;;11.55;4.65;;;7.00;99.90;;;;;;4915526;29;20043;-67
2020/12/13 07:02:45;;;;;;;14.95;4.82;;;7.00;99.90;;;;;;4915662;29;20036;-67
2020/12/13 07:05:11;;;;;;;12.95;5.35;;;7.00;99.90;;;;;;4915886;29;20024;-67
2020/12/13 07:07:38;;;;;;;16.20;5.47;;;7.00;99.90;;;;;;4915782;29;20032;-67
2020/12/13 07:10:10;;;;;;;14.07;5.97;;;7.00;99.90;;;;;;4916048;29;20032;-69
2020/12/13 07:12:36;;;;;;;20.75;6.43;;;7.00;99.90;;;;;;4915845;29;20028;-69
2020/12/13 07:15:18;;;;;;;13.85;6.30;;;7.00;99.90;;;;;;4915705;29;20024;-69
2020/12/13 07:17:44;;;;;;;16.15;6.00;;;7.00;99.90;;;;;;4916016;29;20028;-65
2020/12/13 07:20:10;;;;;;;19.05;7.03;;;6.90;99.90;;;;;;4919394;29;20099;-68
2020/12/13 07:22:36;;;;;;;17.48;6.85;;;6.90;99.90;;;;;;4919022;29;20544;-66
2020/12/13 07:25:02;;;;;;;16.08;6.75;;;6.90;99.90;;;;;;4919087;29;20059;-68
2020/12/13 07:27:31;;;;;;;10.25;5.85;;;6.90;99.90;;;;;;4918871;29;20040;-68
2020/12/13 07:29:56;;;;;;;14.23;6.05;;;6.80;99.90;;;;;;4918894;29;20462;-68
2020/12/13 07:32:23;;;;;;;14.73;5.93;;;6.80;99.90;;;;;;4919121;29;20028;-70
2020/12/13 07:34:49;;;;;;;13.52;5.85;;;6.80;99.90;;;;;;4919019;29;20036;-70
2020/12/13 07:37:16;;;;;;;13.80;6.43;;;6.80;99.90;;;;;;4918928;29;20028;-67
2020/12/13 07:39:42;;;;;;;15.50;6.40;;;6.80;99.90;;;;;;4918889;29;20051;-70
2020/12/13 07:42:08;;;;;;;17.67;7.70;;;6.70;99.90;;;;;;4918983;29;20136;-73
2020/12/13 07:44:34;;;;;;;22.02;7.38;;;6.20;99.90;;;;;;4918593;29;20389;-76
2020/12/13 07:47:00;;;;;;;18.85;8.77;;;6.30;99.90;;;;;;4918505;29;20187;-76
2020/12/13 07:49:25;;;;;;;17.75;10.10;;;5.90;99.90;;;;;;4918670;29;20031;-71
2020/12/13 07:55:13;;;;;;;24.67;9.85;;;5.30;99.90;;;;;;4917020;29;20051;-71
2020/12/13 07:57:47;;;;;;;16.90;6.05;;;5.30;99.90;;;;;;4918862;29;20036;-63
2020/12/13 08:00:12;;;;;;;20.77;9.35;;;8.60;99.90;;;;;;4918698;29;20167;-63
2020/12/13 08:02:38;;;;;;;21.58;9.25;;;10.70;99.90;;;;;;4918672;29;20084;-63
2020/12/13 08:05:04;;;;;;;27.65;9.57;;;11.60;99.90;;;;;;4918648;29;20028;-63
2020/12/13 08:07:30;;;;;;;20.88;8.90;;;11.60;99.90;;;;;;4918568;29;20047;-63
2020/12/13 08:10:00;;;;;;;21.05;8.38;;;12.20;99.90;;;;;;4918362;29;20107;-62
2020/12/13 08:12:31;;;;;;;17.92;8.70;;;12.60;99.90;;;;;;4918576;29;20397;-63
2020/12/13 08:14:56;;;;;;;23.58;8.68;;;13.00;99.90;;;;;;4918087;29;20477;-63
2020/12/13 08:17:22;;;;;;;25.27;10.00;;;12.50;99.90;;;;;;4918107;29;20038;-70
2020/12/13 08:19:49;;;;;;;22.05;9.00;;;9.90;99.90;;;;;;4918058;29;20095;-71
2020/12/13 08:22:23;;;;;;;17.08;7.95;;;8.20;99.90;;;;;;4917133;29;20127;-70
2020/12/13 08:24:57;;;;;;;26.67;8.95;;;7.20;99.90;;;;;;4917510;29;20032;-70
2020/12/13 08:27:24;;;;;;;22.65;8.70;;;6.70;99.90;;;;;;4918147;29;20115;-70
2020/12/13 08:29:51;;;;;;;21.55;8.65;;;6.40;99.90;;;;;;4917086;29;20020;-70
2020/12/13 08:32:22;;;;;;;18.35;7.53;;;6.30;99.90;;;;;;4917671;29;20028;-70
2020/12/13 08:34:47;;;;;;;23.10;9.40;;;6.20;99.90;;;;;;4917849;29;20112;-70
2020/12/13 08:40:43;;;;;;;22.63;8.65;;;6.20;99.90;;;;;;4917966;29;20043;-70
2020/12/13 08:43:12;;;;;;;23.95;8.98;;;6.20;99.90;;;;;;4917400;29;20028;-70
2020/12/13 08:45:38;;;;;;;20.30;9.05;;;6.20;99.90;;;;;;4917516;29;20079;-70
2020/12/13 08:48:04;;;;;;;19.17;9.32;;;6.20;99.90;;;;;;4917304;29;20459;-70
2020/12/13 08:50:39;;;;;;;20.70;9.82;;;6.20;99.90;;;;;;4917440;29;20044;-71
2020/12/13 08:53:25;;;;;;;18.65;8.25;;;6.20;99.90;;;;;;4917250;29;20114;-70
2020/12/13 08:56:13;;;;;;;24.45;9.38;;;6.20;99.90;;;;;;4917073;29;20052;-70
2020/12/13 08:59:00;;;;;;;20.05;9.38;;;6.10;99.90;;;;;;4917251;29;20028;-71
2020/12/13 09:01:28;;;;;;;23.25;9.25;;;6.00;99.90;;;;;;4917298;29;20046;-69
2020/12/13 09:03:55;;;;;;;22.42;10.38;;;6.20;99.90;;;;;;4917527;29;20197;-70
2020/12/13 09:06:26;;;;;;;19.67;9.40;;;6.20;99.90;;;;;;4917315;29;20074;-69
2020/12/13 09:08:52;;;;;;;25.90;9.85;;;6.20;99.90;;;;;;4917113;29;20052;-69
2020/12/13 09:11:33;;;;;;;24.35;11.10;;;6.20;99.90;;;;;;4917272;29;20039;-69
2020/12/13 09:13:59;;;;;;;25.10;10.55;;;6.30;99.90;;;;;;4917270;29;20488;-69
2020/12/13 09:16:33;;;;;;;30.23;11.05;;;6.40;99.90;;;;;;4917180;29;20032;-69
2020/12/13 09:19:06;;;;;;;25.83;10.63;;;6.40;99.90;;;;;;4899772;29;20410;-69
2020/12/13 09:21:49;;;;;;;24.48;11.20;;;6.50;99.90;;;;;;4914665;29;20032;-70
2020/12/13 09:24:17;;;;;;;26.30;12.48;;;6.40;99.90;;;;;;4916705;29;20493;-70
2020/12/13 09:27:11;;;;;;;24.70;10.23;;;6.50;99.90;;;;;;4899595;29;20421;-70
2020/12/13 09:29:39;;;;;;;25.17;10.07;;;6.60;99.90;;;;;;4916561;29;20103;-70
2020/12/13 09:32:07;;;;;;;22.67;8.77;;;6.50;99.90;;;;;;4916589;29;20481;-69
2020/12/13 09:34:33;;;;;;;22.65;8.50;;;6.50;99.90;;;;;;4916480;29;20031;-68
2020/12/13 09:36:58;;;;;;;22.33;8.82;;;6.60;99.90;;;;;;4916448;29;20044;-69
2020/12/13 09:39:24;;;;;;;22.33;9.23;;;6.70;99.90;;;;;;4916379;29;20024;-69
2020/12/13 09:41:54;;;;;;;20.75;8.40;;;6.60;99.90;;;;;;4916501;29;20078;-69
2020/12/13 09:44:20;;;;;;;18.30;7.30;;;6.70;99.90;;;;;;4916446;29;20028;-70
2020/12/13 09:46:45;;;;;;;18.42;6.97;;;6.70;99.90;;;;;;4916122;29;20039;-69
2020/12/13 09:49:11;;;;;;;21.65;7.45;;;6.90;99.90;;;;;;4916153;29;20036;-70
2020/12/13 09:51:37;;;;;;;18.80;6.38;;;7.00;99.90;;;;;;4916193;29;20115;-69
2020/12/13 09:54:02;;;;;;;16.45;6.97;;;6.90;99.90;;;;;;4916206;29;20039;-69
2020/12/13 09:56:28;;;;;;;19.02;7.75;;;6.90;99.90;;;;;;4916425;29;20100;-69
2020/12/13 09:58:54;;;;;;;19.63;7.50;;;7.00;99.90;;;;;;4916526;29;20491;-70
2020/12/13 10:01:19;;;;;;;22.15;7.30;;;7.10;99.90;;;;;;4916534;29;20028;-69
2020/12/13 10:03:51;;;;;;;19.88;6.85;;;7.10;99.90;;;;;;4916296;29;20032;-72
2020/12/13 10:06:49;;;;;;;16.02;6.00;;;7.10;99.90;;;;;;4916123;29;20036;-69
2020/12/13 10:11:30;;;;;;;19.73;6.70;;;7.10;99.90;;;;;;4916227;29;20032;-71
2020/12/13 10:13:56;;;;;;;15.60;6.53;;;7.20;99.90;;;;;;4915915;29;20032;-69
2020/12/13 10:16:22;;;;;;;14.60;6.90;;;7.30;99.90;;;;;;4916090;29;20036;-71
2020/12/13 10:18:48;;;;;;;16.50;6.50;;;7.30;99.90;;;;;;4915996;29;20095;-71
2020/12/13 10:21:22;;;;;;;20.35;7.93;;;7.20;99.90;;;;;;4916128;29;20036;-72
2020/12/13 10:23:48;;;;;;;20.83;7.68;;;7.20;99.90;;;;;;4916496;29;20033;-73
2020/12/13 10:26:14;;;;;;;18.15;6.80;;;7.20;99.90;;;;;;4916119;29;20036;-70
2020/12/13 10:28:40;;;;;;;14.32;6.03;;;7.30;99.90;;;;;;4916279;29;20032;-70
2020/12/13 10:31:07;;;;;;;15.07;5.80;;;7.40;99.90;;;;;;4916197;29;20496;-71
2020/12/13 10:33:39;;;;;;;19.25;7.30;;;7.20;99.90;;;;;;4915870;29;20107;-71
2020/12/13 10:36:08;;;;;;;16.90;6.75;;;7.30;99.90;;;;;;4915791;29;20028;-70
2020/12/13 10:38:34;;;;;;;17.63;6.57;;;7.30;99.90;;;;;;4916068;29;20366;-72
2020/12/13 10:41:00;;;;;;;13.90;6.85;;;7.20;99.90;;;;;;4899337;29;20433;-70
2020/12/13 10:43:25;;;;;;;16.27;6.60;;;7.30;99.90;;;;;;4915851;29;20028;-71
2020/12/13 10:45:51;;;;;;;12.40;5.60;;;7.30;99.90;;;;;;4915753;29;20040;-71
2020/12/13 10:48:17;;;;;;;16.15;5.85;;;7.40;99.90;;;;;;4915916;29;20067;-71
2020/12/13 10:50:42;;;;;;;13.52;6.47;;;7.60;99.90;;;;;;4915874;29;20020;-71
2020/12/13 10:53:08;;;;;;;16.77;6.40;;;7.60;99.90;;;;;;4916324;29;20040;-71
2020/12/13 10:55:34;;;;;;;18.80;6.03;;;7.50;99.90;;;;;;4919205;29;20052;-71
2020/12/13 10:57:59;;;;;;;19.10;5.95;;;7.60;99.90;;;;;;4919006;29;20116;-70
2020/12/13 11:00:25;;;;;;;20.25;6.18;;;7.70;99.90;;;;;;4919498;29;20067;-70
2020/12/13 11:02:51;;;;;;;16.30;5.80;;;7.60;99.90;;;;;;4919577;29;20605;-70
2020/12/13 11:05:17;;;;;;;18.52;6.38;;;7.60;99.90;;;;;;4919283;29;20504;-71
2020/12/13 11:11:06;;;;;;;18.40;6.60;;;7.70;99.90;;;;;;4919358;29;20039;-71
2020/12/13 11:13:32;;;;;;;20.67;6.20;;;7.80;99.90;;;;;;4919290;29;20068;-71
2020/12/13 11:15:58;;;;;;;17.17;5.82;;;7.90;99.90;;;;;;4919410;29;20032;-69
2020/12/13 11:18:23;;;;;;;24.02;6.78;;;7.90;99.90;;;;;;4919483;29;20528;-70
2020/12/13 11:20:49;;;;;;;16.90;7.00;;;7.90;99.90;;;;;;4919071;29;20056;-71
2020/12/13 11:23:15;;;;;;;20.77;6.30;;;7.80;99.90;;;;;;4919066;29;20031;-71
2020/12/13 11:25:40;;;;;;;18.02;5.28;;;7.90;99.90;;;;;;4918987;29;20092;-70
2020/12/13 11:28:07;;;;;;;16.70;5.25;;;8.20;99.90;;;;;;4918889;29;20040;-71
2020/12/13 11:30:33;;;;;;;15.23;6.30;;;8.10;99.90;;;;;;4918991;29;20024;-71
2020/12/13 11:32:59;;;;;;;22.52;6.55;;;8.20;99.90;;;;;;4918644;29;20367;-71
2020/12/13 11:35:25;;;;;;;16.42;6.00;;;8.20;99.90;;;;;;4919257;29;20052;-71
2020/12/13 11:41:13;;;;;;;20.92;5.80;;;8.20;99.90;;;;;;4918921;29;20062;-71
2020/12/13 11:43:38;;;;;;;19.35;5.32;;;8.10;99.90;;;;;;4918495;29;20114;-71
2020/12/13 11:46:04;;;;;;;15.60;6.10;;;8.20;99.90;;;;;;4918789;29;20024;-71
2020/12/13 11:48:30;;;;;;;18.35;5.93;;;8.60;99.90;;;;;;4918530;29;20036;-71
2020/12/13 11:50:55;;;;;;;15.88;5.63;;;8.60;99.90;;;;;;4918225;29;20028;-71
2020/12/13 11:56:43;;;;;;;18.95;5.88;;;8.70;99.90;;;;;;4916869;29;20079;-71
2020/12/13 11:59:09;;;;;;;18.27;5.35;;;8.80;99.90;;;;;;4918284;29;20147;-71
2020/12/13 12:01:35;;;;;;;23.25;5.60;;;8.80;99.90;;;;;;4918540;29;20054;-70
2020/12/13 12:04:02;;;;;;;15.88;5.03;;;8.70;99.90;;;;;;4918080;29;20040;-71
2020/12/13 12:06:28;;;;;;;18.90;4.63;;;8.90;99.90;;;;;;4917585;29;20032;-71
2020/12/13 12:08:53;;;;;;;21.38;5.18;;;8.70;99.90;;;;;;4918368;29;20487;-71
2020/12/13 12:11:23;;;;;;;15.32;4.43;;;8.70;99.90;;;;;;4918289;29;20032;-70
2020/12/13 12:13:49;;;;;;;15.88;4.80;;;9.00;99.90;;;;;;4918292;29;20032;-71
2020/12/13 12:16:15;;;;;;;16.58;4.75;;;8.90;99.90;;;;;;4917989;29;20540;-70
2020/12/13 12:18:41;;;;;;;12.85;4.18;;;8.90;99.90;;;;;;4917845;29;20036;-71
2020/12/13 12:21:17;;;;;;;13.13;4.28;;;8.90;99.90;;;;;;4917899;29;20080;-72
2020/12/13 12:23:43;;;;;;;20.58;5.00;;;8.70;99.90;;;;;;4917653;29;20096;-70
2020/12/13 12:26:09;;;;;;;17.38;5.40;;;8.80;99.90;;;;;;4917816;29;20028;-71
2020/12/13 12:28:35;;;;;;;17.55;4.97;;;8.90;99.90;;;;;;4917721;29;20107;-69
2020/12/13 12:31:00;;;;;;;18.42;5.28;;;8.70;99.90;;;;;;4917856;29;20119;-69
2020/12/13 12:33:26;;;;;;;18.58;5.47;;;8.60;99.90;;;;;;4917522;29;20039;-70
2020/12/13 12:35:52;;;;;;;14.10;4.78;;;8.50;99.90;;;;;;4917577;29;20032;-70
2020/12/13 12:38:17;;;;;;;15.50;4.90;;;8.50;99.90;;;;;;4918204;29;20445;-71
2020/12/13 12:40:43;;;;;;;13.30;4.40;;;8.40;99.90;;;;;;4917590;29;20056;-71
2020/12/13 12:43:09;;;;;;;18.40;5.43;;;8.50;99.90;;;;;;4917876;29;20068;-71
2020/12/13 12:45:34;;;;;;;20.48;5.38;;;8.50;99.90;;;;;;4917434;29;20016;-71
2020/12/13 12:48:00;;;;;;;15.20;5.45;;;8.50;99.90;;;;;;4917580;29;20361;-70
2020/12/13 12:50:26;;;;;;;14.07;4.72;;;8.60;99.90;;;;;;4917519;29;20021;-71
2020/12/13 12:52:53;;;;;;;17.25;5.40;;;8.50;99.90;;;;;;4917535;29;20031;-69
2020/12/13 12:55:19;;;;;;;12.98;5.07;;;8.50;99.90;;;;;;4916992;29;20028;-69
2020/12/13 12:57:45;;;;;;;16.60;5.90;;;8.40;99.90;;;;;;4916763;29;20059;-70
2020/12/13 13:02:36;;;;;;;21.60;6.53;;;8.60;99.90;;;;;;4917505;29;20036;-69
2020/12/13 13:05:08;;;;;;;17.13;5.07;;;8.60;99.90;;;;;;4917331;29;20175;-69
2020/12/13 13:07:37;;;;;;;17.20;5.50;;;8.60;99.90;;;;;;4917045;29;20074;-69
2020/12/13 13:12:29;;;;;;;19.83;5.65;;;8.40;99.90;;;;;;4900539;29;20089;-70
2020/12/13 13:14:54;;;;;;;14.63;4.97;;;8.50;99.90;;;;;;4916883;29;20079;-70
2020/12/13 13:17:31;;;;;;;14.73;5.10;;;8.50;99.90;;;;;;4916844;29;20042;-70
2020/12/13 13:19:59;;;;;;;15.55;5.47;;;8.50;99.90;;;;;;4916794;29;20385;-69
2020/12/13 13:22:25;;;;;;;16.88;5.07;;;8.40;99.90;;;;;;4916906;29;20160;-70
2020/12/13 13:24:50;;;;;;;17.10;5.45;;;8.50;99.90;;;;;;4916842;29;20153;-71
2020/12/13 13:27:16;;;;;;;17.73;5.68;;;8.40;99.90;;;;;;4916864;29;20044;-70
2020/12/13 13:29:42;;;;;;;15.32;5.40;;;8.60;99.90;;;;;;4917010;29;20028;-71
2020/12/13 13:32:08;;;;;;;16.98;5.70;;;8.50;99.90;;;;;;4916607;29;20500;-70
2020/12/13 13:34:35;;;;;;;17.17;5.78;;;8.50;99.90;;;;;;4916782;29;20071;-70
2020/12/13 13:37:04;;;;;;;17.35;6.15;;;8.50;99.90;;;;;;4917129;29;20087;-69
2020/12/13 13:39:29;;;;;;;13.75;5.95;;;8.50;99.90;;;;;;4916587;29;20381;-69
2020/12/13 13:41:55;;;;;;;18.98;6.82;;;8.50;99.90;;;;;;4916568;29;20039;-69
2020/12/13 13:44:27;;;;;;;15.20;6.00;;;8.50;99.90;;;;;;4916681;29;20037;-69
2020/12/13 13:47:01;;;;;;;13.30;5.50;;;8.40;99.90;;;;;;4916508;29;20028;-70
2020/12/13 13:52:11;;;;;;;17.58;5.65;;;8.30;99.90;;;;;;4916598;29;20031;-69
2020/12/13 13:54:36;;;;;;;15.52;5.63;;;8.30;99.90;;;;;;4916602;29;20036;-69
2020/12/13 13:57:04;;;;;;;16.13;6.38;;;8.40;99.90;;;;;;4915823;29;20199;-69
2020/12/13 13:59:32;;;;;;;17.90;6.65;;;8.30;99.90;;;;;;4916155;29;20024;-68